Time;durP1;ratioP1;P1;durP2;ratioP2;P2;SDS_P1;SDS_P2;PMS_P1;PMS_P2;Temp;Humidity;BMP_temperature;BMP_pressure;BME280_temperature;BME280_humidity;BME280_pressure;Samples;Min_cycle;Max_cycle;Signal;HPM_P1;HPM_P2
2023/08/12 00:02:18;;;;;;;6.03;5.43;;;27.50;67.40;;;;;;4858513;29;20500;-85
2023/08/12 00:04:48;;;;;;;6.13;5.67;;;27.50;67.40;;;;;;4858398;29;20804;-85
2023/08/12 00:07:16;;;;;;;5.77;5.27;;;27.50;67.40;;;;;;4855787;29;20487;-89
2023/08/12 00:09:49;;;;;;;6.10;5.70;;;27.50;67.40;;;;;;4858517;29;20513;-85
2023/08/12 00:12:20;;;;;;;5.80;5.40;;;27.50;67.30;;;;;;4858211;29;20963;-88
2023/08/12 00:14:48;;;;;;;4.70;4.40;;;27.50;67.30;;;;;;4857406;29;21030;-85
2023/08/12 00:17:16;;;;;;;6.17;5.67;;;27.50;67.40;;;;;;4858561;29;21108;-85
2023/08/12 00:19:45;;;;;;;5.40;5.00;;;27.50;67.30;;;;;;4851571;29;20528;-85
2023/08/12 00:22:14;;;;;;;5.80;5.40;;;27.50;67.30;;;;;;4856346;29;21098;-87
2023/08/12 00:24:43;;;;;;;5.27;4.90;;;27.50;67.30;;;;;;4846128;29;20479;-85
2023/08/12 00:27:11;;;;;;;6.50;6.00;;;27.50;67.30;;;;;;4849352;29;20603;-86
2023/08/12 00:29:40;;;;;;;6.03;5.43;;;27.50;67.30;;;;;;4867178;29;20485;-88
2023/08/12 00:32:10;;;;;;;5.80;5.40;;;27.50;67.30;;;;;;4845173;29;20471;-85
2023/08/12 00:34:38;;;;;;;6.03;5.57;;;27.50;67.30;;;;;;4866798;29;20797;-85
2023/08/12 00:37:06;;;;;;;5.53;5.23;;;27.50;67.30;;;;;;4855986;29;20466;-85
2023/08/12 00:39:36;;;;;;;6.37;5.77;;;27.50;67.30;;;;;;4854464;29;20468;-85
2023/08/12 00:42:05;;;;;;;5.90;5.50;;;27.50;67.40;;;;;;4856972;29;20554;-86
2023/08/12 00:44:33;;;;;;;7.63;5.53;;;27.50;67.40;;;;;;4846122;29;20474;-86
2023/08/12 00:47:01;;;;;;;5.00;4.60;;;27.50;67.50;;;;;;4855149;29;20480;-85
2023/08/12 00:49:29;;;;;;;5.60;5.20;;;27.50;67.50;;;;;;4857039;29;20491;-85
2023/08/12 00:51:58;;;;;;;5.60;5.20;;;27.50;67.60;;;;;;4857587;29;20834;-86
2023/08/12 00:54:27;;;;;;;5.60;5.10;;;27.50;67.70;;;;;;4854230;29;20524;-86
2023/08/12 00:56:57;;;;;;;5.13;4.63;;;27.50;67.70;;;;;;4848690;29;20480;-86
2023/08/12 00:59:26;;;;;;;5.37;4.87;;;27.50;67.70;;;;;;4851946;29;20473;-87
2023/08/12 01:01:54;;;;;;;5.10;4.77;;;27.50;67.80;;;;;;4853694;29;20459;-86
2023/08/12 01:04:23;;;;;;;5.77;5.30;;;27.50;67.80;;;;;;4855223;29;20457;-85
2023/08/12 01:06:51;;;;;;;5.90;5.40;;;27.50;67.90;;;;;;4869327;29;20486;-85
2023/08/12 01:09:20;;;;;;;5.80;5.30;;;27.50;67.90;;;;;;4855675;29;20530;-85
2023/08/12 01:11:54;;;;;;;4.87;4.57;;;27.50;67.90;;;;;;4845211;29;21413;-86
2023/08/12 01:14:28;;;;;;;5.40;5.10;;;27.50;67.90;;;;;;4853844;29;20521;-85
2023/08/12 01:17:03;;;;;;;5.40;5.00;;;27.50;67.90;;;;;;4862629;29;20480;-86
2023/08/12 01:19:35;;;;;;;5.40;4.90;;;27.40;67.90;;;;;;4870558;29;20537;-85
2023/08/12 01:22:05;;;;;;;5.50;5.10;;;27.40;68.00;;;;;;4854899;29;20479;-85
2023/08/12 01:24:39;;;;;;;4.97;4.60;;;27.40;68.00;;;;;;4863954;29;20464;-86
2023/08/12 01:27:09;;;;;;;5.50;5.10;;;27.40;67.90;;;;;;4844309;29;20500;-85
2023/08/12 01:29:42;;;;;;;5.67;5.27;;;27.40;68.00;;;;;;4848046;29;20469;-85
2023/08/12 01:32:21;;;;;;;4.70;4.40;;;27.40;67.90;;;;;;4858356;29;20489;-86
2023/08/12 01:34:59;;;;;;;5.80;5.40;;;27.40;67.90;;;;;;4855484;29;20515;-85
2023/08/12 01:37:30;;;;;;;5.67;4.90;;;27.40;67.90;;;;;;4874681;29;20477;-87
2023/08/12 01:40:04;;;;;;;5.73;5.30;;;27.40;67.90;;;;;;4856005;29;20474;-86
2023/08/12 01:42:35;;;;;;;6.13;5.63;;;27.40;67.80;;;;;;4855950;29;20469;-86
2023/08/12 01:45:03;;;;;;;4.80;4.50;;;27.40;67.80;;;;;;4854540;29;20955;-86
2023/08/12 01:47:32;;;;;;;5.17;4.77;;;27.40;67.80;;;;;;4856339;29;20513;-85
2023/08/12 01:50:00;;;;;;;5.33;4.93;;;27.50;67.70;;;;;;4858507;29;20898;-87
2023/08/12 01:52:28;;;;;;;5.10;4.70;;;27.50;67.70;;;;;;4856661;29;20818;-88
2023/08/12 01:54:57;;;;;;;4.60;4.30;;;27.50;67.60;;;;;;4850411;29;20470;-86
2023/08/12 01:57:26;;;;;;;5.47;5.07;;;27.50;67.60;;;;;;4851992;29;20478;-85
2023/08/12 01:59:54;;;;;;;4.63;4.33;;;27.50;67.60;;;;;;4858792;29;20504;-88
2023/08/12 02:02:23;;;;;;;4.40;4.10;;;27.40;67.60;;;;;;4852266;29;20907;-86
2023/08/12 02:04:51;;;;;;;4.90;4.50;;;27.40;67.60;;;;;;4850594;29;20531;-87
2023/08/12 02:07:19;;;;;;;5.10;4.70;;;27.40;67.60;;;;;;4868153;29;20486;-85
2023/08/12 02:09:48;;;;;;;4.30;4.00;;;27.40;67.60;;;;;;4856663;29;20530;-85
2023/08/12 02:12:16;;;;;;;5.00;4.60;;;27.40;67.60;;;;;;4864468;29;20486;-85
2023/08/12 02:14:46;;;;;;;6.90;4.80;;;27.40;67.60;;;;;;4854780;29;21209;-85
2023/08/12 02:17:14;;;;;;;5.83;5.37;;;27.40;67.60;;;;;;4854901;29;20482;-85
2023/08/12 02:19:42;;;;;;;4.57;4.27;;;27.40;67.70;;;;;;4855997;29;20489;-85
2023/08/12 02:22:11;;;;;;;4.53;4.23;;;27.40;67.70;;;;;;4851606;29;20837;-85
2023/08/12 02:24:39;;;;;;;4.83;4.53;;;27.30;67.70;;;;;;4853225;29;20479;-85
2023/08/12 02:27:07;;;;;;;4.80;4.50;;;27.30;67.80;;;;;;4857672;29;20507;-85
2023/08/12 02:29:36;;;;;;;5.00;4.40;;;27.30;67.80;;;;;;4854121;29;20524;-85
2023/08/12 02:32:06;;;;;;;4.77;4.37;;;27.30;67.80;;;;;;4856144;29;20474;-85
2023/08/12 02:34:34;;;;;;;5.30;4.90;;;27.30;67.80;;;;;;4853212;29;20536;-85
2023/08/12 02:37:02;;;;;;;4.63;4.33;;;27.30;67.80;;;;;;4846582;29;20471;-87
2023/08/12 02:39:31;;;;;;;4.43;4.13;;;27.30;67.80;;;;;;4855723;29;20487;-85
2023/08/12 02:41:59;;;;;;;4.70;4.30;;;27.30;67.80;;;;;;4854831;29;20480;-85
2023/08/12 02:44:29;;;;;;;4.60;4.30;;;27.30;67.80;;;;;;4847503;29;20545;-86
2023/08/12 02:46:57;;;;;;;4.70;4.40;;;27.30;67.80;;;;;;4851165;29;20489;-85
2023/08/12 02:49:27;;;;;;;4.73;4.43;;;27.30;67.80;;;;;;4853802;29;20465;-86
2023/08/12 02:51:55;;;;;;;4.77;4.40;;;27.20;67.80;;;;;;4850752;29;20474;-85
2023/08/12 02:54:24;;;;;;;4.70;4.30;;;27.20;67.80;;;;;;4854366;29;20478;-86
2023/08/12 02:56:52;;;;;;;5.00;4.70;;;27.20;67.80;;;;;;4853638;29;20469;-85
2023/08/12 02:59:22;;;;;;;5.07;4.67;;;27.20;67.80;;;;;;4850881;29;20474;-87
2023/08/12 03:01:50;;;;;;;5.27;4.87;;;27.20;67.80;;;;;;4860227;29;20487;-89
2023/08/12 03:04:18;;;;;;;4.93;4.50;;;27.20;67.80;;;;;;4846395;29;20493;-85
2023/08/12 03:06:48;;;;;;;4.10;3.80;;;27.20;67.80;;;;;;4853686;29;20474;-87
2023/08/12 03:09:18;;;;;;;4.97;4.67;;;27.20;67.80;;;;;;4854186;29;20570;-86
2023/08/12 03:11:46;;;;;;;4.70;4.30;;;27.20;67.80;;;;;;4853886;29;20467;-85
2023/08/12 03:14:15;;;;;;;4.40;4.10;;;27.20;67.80;;;;;;4866217;29;21072;-88
2023/08/12 03:16:43;;;;;;;3.80;3.60;;;27.20;67.80;;;;;;4853175;29;20478;-85
2023/08/12 03:19:12;;;;;;;3.70;3.50;;;27.20;67.70;;;;;;4861859;29;20507;-85
2023/08/12 03:21:40;;;;;;;4.67;4.27;;;27.20;67.70;;;;;;4852342;29;20874;-86
2023/08/12 03:24:09;;;;;;;3.73;3.50;;;27.20;67.70;;;;;;4848399;29;20483;-85
2023/08/12 03:26:38;;;;;;;4.50;4.20;;;27.20;67.70;;;;;;4852055;29;20508;-86
2023/08/12 03:29:07;;;;;;;5.20;4.80;;;27.20;67.70;;;;;;4849093;29;20491;-88
2023/08/12 03:31:38;;;;;;;5.13;4.73;;;27.20;67.70;;;;;;4850726;29;20477;-85
2023/08/12 03:34:07;;;;;;;5.43;4.13;;;27.20;67.70;;;;;;4852819;29;20478;-85
2023/08/12 03:36:35;;;;;;;4.40;4.10;;;27.20;67.70;;;;;;4863978;29;20477;-85
2023/08/12 03:39:04;;;;;;;4.57;4.27;;;27.10;67.70;;;;;;4846409;29;20463;-85
2023/08/12 03:41:34;;;;;;;4.20;3.90;;;27.20;67.70;;;;;;4844847;29;20466;-86
2023/08/12 03:44:06;;;;;;;4.40;4.03;;;27.20;67.70;;;;;;4849781;29;20563;-87
2023/08/12 03:46:34;;;;;;;4.13;3.93;;;27.20;67.70;;;;;;4861427;29;21052;-85
2023/08/12 03:49:04;;;;;;;4.80;4.40;;;27.20;67.60;;;;;;4847460;29;20507;-85
2023/08/12 03:51:32;;;;;;;4.50;4.20;;;27.10;67.60;;;;;;4853668;29;20466;-87
2023/08/12 03:54:00;;;;;;;4.30;4.00;;;27.10;67.60;;;;;;4853249;29;20478;-86
2023/08/12 03:56:29;;;;;;;4.30;4.00;;;27.10;67.60;;;;;;4852590;29;20479;-87
2023/08/12 03:58:58;;;;;;;3.83;3.60;;;27.10;67.60;;;;;;4855247;29;20472;-85
2023/08/12 04:01:26;;;;;;;4.30;3.90;;;27.10;67.60;;;;;;4855898;29;20471;-85
2023/08/12 04:03:55;;;;;;;4.47;4.10;;;27.10;67.60;;;;;;4852125;29;20473;-85
2023/08/12 04:06:23;;;;;;;4.53;4.13;;;27.10;67.60;;;;;;4854776;29;20992;-85
2023/08/12 04:08:51;;;;;;;4.53;4.23;;;27.10;67.50;;;;;;4847751;29;20485;-85
2023/08/12 04:11:20;;;;;;;4.10;3.90;;;27.10;67.50;;;;;;4856035;29;20837;-85
2023/08/12 04:13:48;;;;;;;4.50;4.20;;;27.10;67.50;;;;;;4855697;29;20499;-85
2023/08/12 04:16:18;;;;;;;4.10;3.80;;;27.10;67.50;;;;;;4847748;29;20483;-85
2023/08/12 04:18:46;;;;;;;4.77;4.47;;;27.10;67.50;;;;;;4850991;29;20469;-85
2023/08/12 04:21:14;;;;;;;5.83;3.90;;;27.10;67.50;;;;;;4864074;29;20475;-85
2023/08/12 04:23:43;;;;;;;4.20;3.90;;;27.10;67.50;;;;;;4852223;29;20465;-85
2023/08/12 04:26:13;;;;;;;4.13;3.83;;;27.10;67.40;;;;;;4856149;29;20469;-85
2023/08/12 04:28:42;;;;;;;3.93;3.53;;;27.10;67.40;;;;;;4850849;29;20641;-85
2023/08/12 04:31:10;;;;;;;4.80;4.37;;;27.10;67.30;;;;;;4862855;29;21030;-86
2023/08/12 04:33:43;;;;;;;5.80;4.17;;;27.20;67.30;;;;;;4852535;29;20980;-86
2023/08/12 04:36:11;;;;;;;5.50;5.10;;;27.20;67.30;;;;;;4856494;29;20471;-85
2023/08/12 04:38:40;;;;;;;3.93;3.63;;;27.10;67.30;;;;;;4865061;29;20465;-85
2023/08/12 04:41:10;;;;;;;3.93;3.63;;;27.20;67.30;;;;;;4848232;29;21148;-84
2023/08/12 04:43:38;;;;;;;4.23;3.93;;;27.20;67.30;;;;;;4846835;29;20507;-86
2023/08/12 04:46:06;;;;;;;3.73;3.53;;;27.10;67.30;;;;;;4856890;29;20471;-86
2023/08/12 04:48:35;;;;;;;4.27;3.90;;;27.10;67.30;;;;;;4854579;29;20487;-87
2023/08/12 04:51:05;;;;;;;3.83;3.60;;;27.20;67.30;;;;;;4868283;29;20491;-85
2023/08/12 04:53:35;;;;;;;3.40;3.20;;;27.20;67.20;;;;;;4869463;29;20492;-85
2023/08/12 04:56:03;;;;;;;4.47;4.17;;;27.20;67.30;;;;;;4851072;29;20826;-85
2023/08/12 04:58:32;;;;;;;4.70;4.40;;;27.10;67.20;;;;;;4845442;29;20468;-85
2023/08/12 05:01:02;;;;;;;3.80;3.50;;;27.20;67.20;;;;;;4844360;29;20965;-88
2023/08/12 05:03:31;;;;;;;4.30;4.00;;;27.10;67.20;;;;;;4854471;29;20468;-85
2023/08/12 05:06:00;;;;;;;3.97;3.67;;;27.20;67.20;;;;;;4848995;29;20556;-89
2023/08/12 05:08:30;;;;;;;4.67;3.87;;;27.20;67.20;;;;;;4851114;29;20485;-86
2023/08/12 05:10:58;;;;;;;4.00;3.60;;;27.20;67.20;;;;;;4849508;29;20472;-85
2023/08/12 05:13:28;;;;;;;3.83;3.53;;;27.20;67.20;;;;;;4853061;29;20531;-87
2023/08/12 05:15:56;;;;;;;4.33;4.03;;;27.20;67.20;;;;;;4854211;29;20494;-85
2023/08/12 05:18:24;;;;;;;4.20;3.90;;;27.20;67.20;;;;;;4852626;29;20473;-85
2023/08/12 05:20:53;;;;;;;3.60;3.40;;;27.20;67.10;;;;;;4859558;29;20479;-89
2023/08/12 05:23:22;;;;;;;4.23;3.97;;;27.20;67.10;;;;;;4851549;29;20995;-85
2023/08/12 05:25:52;;;;;;;4.20;3.90;;;27.20;67.10;;;;;;4852023;29;20498;-86
2023/08/12 05:28:22;;;;;;;4.13;3.83;;;27.20;67.10;;;;;;4847157;29;20563;-85
2023/08/12 05:30:51;;;;;;;3.73;3.50;;;27.20;67.10;;;;;;4854812;29;20479;-86
2023/08/12 05:33:19;;;;;;;4.37;4.13;;;27.20;67.10;;;;;;4854050;29;21338;-86
2023/08/12 05:35:48;;;;;;;3.97;3.73;;;27.20;67.10;;;;;;4846983;29;20503;-86
2023/08/12 05:38:18;;;;;;;3.67;3.47;;;27.20;67.10;;;;;;4854069;29;20476;-85
2023/08/12 05:40:47;;;;;;;4.10;3.80;;;27.20;67.10;;;;;;4848610;29;20490;-85
2023/08/12 05:43:16;;;;;;;3.80;3.60;;;27.20;67.10;;;;;;4843936;29;20470;-88
2023/08/12 05:45:44;;;;;;;3.60;3.40;;;27.20;67.10;;;;;;4863209;29;20490;-84
2023/08/12 05:48:13;;;;;;;3.60;3.40;;;27.20;67.20;;;;;;4847094;29;20488;-85
2023/08/12 05:50:41;;;;;;;3.80;3.50;;;27.20;67.10;;;;;;4851485;29;21324;-86
2023/08/12 05:53:09;;;;;;;4.17;3.87;;;27.20;67.10;;;;;;4851906;29;20552;-85
2023/08/12 05:55:38;;;;;;;3.67;3.37;;;27.20;67.10;;;;;;4855684;29;20468;-85
2023/08/12 05:58:06;;;;;;;4.50;4.20;;;27.20;67.10;;;;;;4853852;29;20468;-85
2023/08/12 06:00:35;;;;;;;4.20;3.90;;;27.20;67.10;;;;;;4851414;29;21309;-86
2023/08/12 06:03:04;;;;;;;3.70;3.50;;;27.20;67.10;;;;;;4852399;29;20468;-86
2023/08/12 06:05:35;;;;;;;3.90;3.70;;;27.20;67.10;;;;;;4850923;29;20560;-86
2023/08/12 06:08:03;;;;;;;3.43;3.23;;;27.20;67.10;;;;;;4841410;29;20474;-86
2023/08/12 06:10:31;;;;;;;4.00;3.80;;;27.20;67.00;;;;;;4852967;29;21055;-85
2023/08/12 06:12:59;;;;;;;4.67;4.37;;;27.20;67.10;;;;;;4850831;29;20471;-88
2023/08/12 06:15:28;;;;;;;4.00;3.77;;;27.20;67.10;;;;;;4853231;29;20477;-85
2023/08/12 06:17:57;;;;;;;4.63;4.23;;;27.20;67.10;;;;;;4853404;29;20473;-87
2023/08/12 06:20:25;;;;;;;3.93;3.67;;;27.20;67.10;;;;;;4855935;29;21050;-85
2023/08/12 06:22:54;;;;;;;4.80;4.50;;;27.20;67.10;;;;;;4854469;29;20465;-85
2023/08/12 06:25:22;;;;;;;4.03;3.73;;;27.20;67.00;;;;;;4851779;29;20489;-85
2023/08/12 06:27:50;;;;;;;4.20;3.90;;;27.20;67.00;;;;;;4852914;29;20505;-87
2023/08/12 06:30:18;;;;;;;3.87;3.63;;;27.20;67.00;;;;;;4855170;29;20486;-86
2023/08/12 06:32:47;;;;;;;5.27;4.07;;;27.30;67.00;;;;;;4855357;29;20826;-85
2023/08/12 06:38:39;;;;;;;4.30;4.00;;;27.30;67.00;;;;;;4852767;29;20470;-86
2023/08/12 06:41:07;;;;;;;4.60;4.30;;;27.20;67.00;;;;;;4850784;29;20556;-86
2023/08/12 06:43:36;;;;;;;4.40;4.10;;;27.30;67.00;;;;;;4854893;29;20532;-85
2023/08/12 06:46:04;;;;;;;4.63;4.23;;;27.30;67.00;;;;;;4850644;29;20471;-85
2023/08/12 06:48:32;;;;;;;4.03;3.63;;;27.30;67.00;;;;;;4852738;29;20469;-85
2023/08/12 06:51:04;;;;;;;4.07;3.87;;;27.30;67.00;;;;;;4846287;29;20485;-87
2023/08/12 06:53:32;;;;;;;3.97;3.67;;;27.30;67.00;;;;;;4850085;29;20472;-87
2023/08/12 06:56:01;;;;;;;3.70;3.40;;;27.30;67.00;;;;;;4861797;29;20547;-86
2023/08/12 06:58:29;;;;;;;3.77;3.57;;;27.30;67.00;;;;;;4848527;29;20472;-85
2023/08/12 07:00:58;;;;;;;4.10;3.80;;;27.30;67.00;;;;;;4849774;29;20530;-88
2023/08/12 07:03:27;;;;;;;4.13;3.83;;;27.30;67.00;;;;;;4855242;29;20466;-85
2023/08/12 07:05:55;;;;;;;4.10;3.80;;;27.30;67.00;;;;;;4853788;29;20474;-85
2023/08/12 07:08:23;;;;;;;3.87;3.67;;;27.30;67.00;;;;;;4849263;29;20517;-85
2023/08/12 07:10:52;;;;;;;4.03;3.73;;;27.30;67.00;;;;;;4852021;29;20497;-86
2023/08/12 07:13:21;;;;;;;4.63;4.33;;;27.30;66.90;;;;;;4849545;29;20593;-85
2023/08/12 07:15:49;;;;;;;3.70;3.50;;;27.30;66.90;;;;;;4854621;29;20461;-87
2023/08/12 07:18:18;;;;;;;4.33;4.03;;;27.30;66.90;;;;;;4847006;29;20899;-87
2023/08/12 07:20:46;;;;;;;3.40;3.20;;;27.30;67.00;;;;;;4852812;29;20468;-85
2023/08/12 07:23:14;;;;;;;4.17;3.77;;;27.30;67.00;;;;;;4849084;29;20466;-89
2023/08/12 07:25:42;;;;;;;4.10;3.80;;;27.30;67.00;;;;;;4850218;29;20536;-85
2023/08/12 07:28:10;;;;;;;4.20;3.90;;;27.30;67.00;;;;;;4855496;29;20578;-90
2023/08/12 07:30:40;;;;;;;4.33;4.03;;;27.30;67.00;;;;;;4854754;29;20487;-88
2023/08/12 07:33:08;;;;;;;4.60;4.30;;;27.30;66.90;;;;;;4851210;29;20518;-86
2023/08/12 07:35:36;;;;;;;4.40;4.10;;;27.30;67.00;;;;;;4850134;29;20473;-85
2023/08/12 07:38:05;;;;;;;4.20;3.80;;;27.30;67.00;;;;;;4852754;29;21047;-85
2023/08/12 07:40:33;;;;;;;4.00;3.80;;;27.30;67.00;;;;;;4851409;29;20477;-86
2023/08/12 07:43:01;;;;;;;4.47;4.17;;;27.30;67.00;;;;;;4854675;29;20474;-85
2023/08/12 07:45:29;;;;;;;3.97;3.77;;;27.30;67.00;;;;;;4848798;29;20521;-86
2023/08/12 07:47:59;;;;;;;3.83;3.53;;;27.30;67.00;;;;;;4852440;29;20558;-85
2023/08/12 07:50:27;;;;;;;3.67;3.47;;;27.30;67.00;;;;;;4850236;29;20490;-85
2023/08/12 07:52:55;;;;;;;4.40;4.10;;;27.30;67.00;;;;;;4851979;29;20540;-86
2023/08/12 07:55:24;;;;;;;4.07;3.83;;;27.30;67.10;;;;;;4852166;29;20469;-88
2023/08/12 07:57:54;;;;;;;4.43;4.13;;;27.30;67.10;;;;;;4849304;29;20495;-85
2023/08/12 08:00:22;;;;;;;4.17;3.87;;;27.30;67.10;;;;;;4852308;29;20872;-85
2023/08/12 08:02:50;;;;;;;5.57;4.57;;;27.30;67.10;;;;;;4850218;29;20472;-86
2023/08/12 08:05:20;;;;;;;4.00;3.70;;;27.30;67.10;;;;;;4848585;29;20467;-85
2023/08/12 08:07:48;;;;;;;4.67;4.27;;;27.30;67.00;;;;;;4846841;29;20479;-85
2023/08/12 08:10:17;;;;;;;4.07;3.70;;;27.30;67.10;;;;;;4848627;29;20483;-84
2023/08/12 08:12:45;;;;;;;4.63;4.33;;;27.30;67.10;;;;;;4850353;29;20525;-85
2023/08/12 08:15:13;;;;;;;4.80;4.50;;;27.30;67.10;;;;;;4854777;29;20487;-85
2023/08/12 08:17:41;;;;;;;4.07;3.77;;;27.30;67.20;;;;;;4855037;29;20468;-85
2023/08/12 08:20:11;;;;;;;4.70;4.40;;;27.30;67.20;;;;;;4854892;29;20524;-87
2023/08/12 08:22:40;;;;;;;4.47;4.07;;;27.40;67.20;;;;;;4849332;29;21329;-87
2023/08/12 08:25:09;;;;;;;4.27;3.97;;;27.40;67.10;;;;;;4853019;29;21339;-85
2023/08/12 08:27:37;;;;;;;4.33;4.00;;;27.40;67.10;;;;;;4847248;29;20537;-87
2023/08/12 08:30:07;;;;;;;4.60;4.30;;;27.40;67.10;;;;;;4850896;29;20483;-84
2023/08/12 08:32:35;;;;;;;4.60;4.20;;;27.40;67.10;;;;;;4850742;29;20478;-85
2023/08/12 08:35:04;;;;;;;4.03;3.73;;;27.40;67.00;;;;;;4854618;29;20878;-84
2023/08/12 08:37:32;;;;;;;4.13;3.83;;;27.40;66.90;;;;;;4850411;29;20625;-85
2023/08/12 08:40:03;;;;;;;4.63;4.10;;;27.40;66.90;;;;;;4854894;29;20474;-86
2023/08/12 08:42:32;;;;;;;4.00;3.70;;;27.50;66.80;;;;;;4849284;29;20848;-84
2023/08/12 08:45:02;;;;;;;4.73;4.33;;;27.50;66.90;;;;;;4854857;29;20473;-87
2023/08/12 08:47:31;;;;;;;4.70;4.20;;;27.50;66.90;;;;;;4856426;29;20561;-85
2023/08/12 08:50:01;;;;;;;5.33;4.93;;;27.40;66.90;;;;;;4858522;29;21198;-84
2023/08/12 08:52:30;;;;;;;6.33;3.67;;;27.40;67.20;;;;;;4852676;29;20500;-86
2023/08/12 08:54:58;;;;;;;8.17;3.93;;;27.50;67.10;;;;;;4855020;29;21145;-85
2023/08/12 08:57:33;;;;;;;4.93;4.33;;;27.40;67.30;;;;;;4870913;29;20465;-89
2023/08/12 09:00:16;;;;;;;8.00;4.53;;;27.50;67.30;;;;;;4852128;29;20808;-86
2023/08/12 09:02:54;;;;;;;3.30;3.10;;;27.50;67.30;;;;;;4859933;29;20470;-87
2023/08/12 09:05:23;;;;;;;4.90;4.47;;;27.50;67.30;;;;;;4857764;29;20473;-86
2023/08/12 09:07:52;;;;;;;5.80;3.90;;;27.50;67.10;;;;;;4851753;29;20471;-87
2023/08/12 09:10:22;;;;;;;5.00;3.77;;;27.50;67.00;;;;;;4870064;29;20474;-92
2023/08/12 09:12:52;;;;;;;10.20;4.23;;;27.50;67.10;;;;;;4848967;29;20479;-89
2023/08/12 09:15:21;;;;;;;6.13;4.67;;;27.60;67.00;;;;;;4854840;29;21185;-86
2023/08/12 09:17:49;;;;;;;6.20;4.83;;;27.50;67.20;;;;;;4851158;29;20618;-88
2023/08/12 09:20:20;;;;;;;5.60;4.50;;;27.50;67.00;;;;;;4855781;29;20502;-85
2023/08/12 09:22:57;;;;;;;4.43;4.07;;;27.60;66.90;;;;;;4856173;29;21044;-84
2023/08/12 09:25:27;;;;;;;5.50;5.10;;;27.50;67.10;;;;;;4853267;29;20472;-85
2023/08/12 09:28:00;;;;;;;8.80;4.40;;;27.50;67.10;;;;;;4848576;29;21033;-84
2023/08/12 09:30:31;;;;;;;4.17;3.40;;;27.60;67.10;;;;;;4852763;29;20515;-85
2023/08/12 09:33:03;;;;;;;5.30;4.40;;;27.60;67.00;;;;;;4850475;29;20524;-87
2023/08/12 09:35:34;;;;;;;4.03;3.60;;;27.60;67.00;;;;;;4851795;29;20497;-85
2023/08/12 09:38:05;;;;;;;5.00;4.47;;;27.60;66.90;;;;;;4848878;29;20469;-86
2023/08/12 09:40:34;;;;;;;7.43;4.37;;;27.60;66.90;;;;;;4849053;29;20468;-83
2023/08/12 09:43:05;;;;;;;5.23;3.80;;;27.60;66.90;;;;;;4849225;29;20469;-84
2023/08/12 09:45:35;;;;;;;4.20;3.80;;;27.60;66.90;;;;;;4859842;29;20458;-85
2023/08/12 09:48:03;;;;;;;5.20;4.07;;;27.60;66.80;;;;;;4856948;29;20968;-86
2023/08/12 09:50:32;;;;;;;6.80;4.03;;;27.50;66.80;;;;;;4852151;29;20460;-85
2023/08/12 09:53:03;;;;;;;4.40;3.93;;;27.60;66.80;;;;;;4857728;29;20490;-85
2023/08/12 09:55:32;;;;;;;4.60;3.77;;;27.60;66.80;;;;;;4853192;29;20475;-85
2023/08/12 09:58:02;;;;;;;4.23;3.77;;;27.50;66.80;;;;;;4859198;29;20469;-85
2023/08/12 10:00:33;;;;;;;5.27;4.00;;;27.60;66.80;;;;;;4853534;29;20470;-86
2023/08/12 10:03:03;;;;;;;3.93;3.53;;;27.50;66.80;;;;;;4856328;29;20531;-85
2023/08/12 10:05:34;;;;;;;3.80;3.50;;;27.50;66.80;;;;;;4855605;29;20996;-85
2023/08/12 10:08:03;;;;;;;6.20;3.77;;;27.50;66.90;;;;;;4861530;29;20472;-85
2023/08/12 10:10:33;;;;;;;5.50;3.90;;;27.50;66.90;;;;;;4853554;29;20969;-85
2023/08/12 10:13:02;;;;;;;4.10;3.70;;;27.50;66.80;;;;;;4851950;29;20493;-84
2023/08/12 10:15:32;;;;;;;4.03;3.63;;;27.50;66.80;;;;;;4849805;29;21019;-85
2023/08/12 10:18:00;;;;;;;5.20;4.20;;;27.50;66.70;;;;;;4859521;29;20840;-86
2023/08/12 10:20:30;;;;;;;3.83;3.53;;;27.50;66.70;;;;;;4852076;29;20693;-85
2023/08/12 10:23:01;;;;;;;8.83;3.80;;;27.50;66.80;;;;;;4857227;29;20535;-85
2023/08/12 10:25:34;;;;;;;5.30;3.60;;;27.50;66.80;;;;;;4847862;29;20848;-85
2023/08/12 10:28:02;;;;;;;3.97;3.67;;;27.50;66.80;;;;;;4849317;29;20522;-86
2023/08/12 10:30:32;;;;;;;3.83;3.33;;;27.50;66.80;;;;;;4852409;29;20472;-86
2023/08/12 10:33:01;;;;;;;4.90;3.40;;;27.50;66.70;;;;;;4849359;29;20567;-85
2023/08/12 10:35:43;;;;;;;3.57;3.23;;;27.50;66.70;;;;;;4855205;29;21017;-85
2023/08/12 10:38:15;;;;;;;3.83;3.60;;;27.50;66.70;;;;;;4846939;29;20567;-85
2023/08/12 10:40:44;;;;;;;5.70;3.37;;;27.50;66.70;;;;;;4855839;29;20470;-84
2023/08/12 10:43:13;;;;;;;5.40;3.20;;;27.50;66.70;;;;;;4851871;29;20481;-85
2023/08/12 10:45:49;;;;;;;4.33;3.83;;;27.50;66.60;;;;;;4855797;29;20474;-85
2023/08/12 10:48:20;;;;;;;3.73;3.10;;;27.60;66.60;;;;;;4850975;29;20482;-84
2023/08/12 10:50:50;;;;;;;3.33;3.03;;;27.60;66.60;;;;;;4851528;29;20476;-83
2023/08/12 10:53:29;;;;;;;3.20;3.00;;;27.60;66.60;;;;;;4845264;29;20514;-84
2023/08/12 10:55:59;;;;;;;3.83;3.10;;;27.60;66.60;;;;;;4849525;29;20474;-84
2023/08/12 10:58:29;;;;;;;4.17;3.80;;;27.60;66.60;;;;;;4850213;29;20468;-84
2023/08/12 11:00:59;;;;;;;4.23;3.30;;;27.60;66.70;;;;;;4852108;29;20471;-83
2023/08/12 11:03:32;;;;;;;3.00;2.80;;;27.50;66.70;;;;;;4858839;29;20470;-85
2023/08/12 11:06:03;;;;;;;3.83;3.53;;;27.50;66.70;;;;;;4851635;29;20482;-84
2023/08/12 11:08:33;;;;;;;4.90;3.40;;;27.60;66.70;;;;;;4859440;29;20463;-84
2023/08/12 11:11:03;;;;;;;4.10;3.70;;;27.60;66.70;;;;;;4862540;29;20494;-84
2023/08/12 11:13:31;;;;;;;3.13;2.93;;;27.60;66.50;;;;;;4849749;29;20489;-84
2023/08/12 11:16:11;;;;;;;3.73;3.37;;;27.60;66.50;;;;;;4860231;29;20505;-85
2023/08/12 11:18:41;;;;;;;3.30;3.10;;;27.60;66.50;;;;;;4853931;29;21153;-84
2023/08/12 11:21:11;;;;;;;3.23;3.00;;;27.60;66.60;;;;;;4850122;29;20574;-88
2023/08/12 11:23:41;;;;;;;2.90;2.53;;;27.60;66.60;;;;;;4849599;29;20480;-83
2023/08/12 11:26:09;;;;;;;3.10;2.80;;;27.60;66.50;;;;;;4852683;29;20582;-85
2023/08/12 11:28:39;;;;;;;3.80;3.47;;;27.60;66.50;;;;;;4850757;29;20470;-84
2023/08/12 11:31:08;;;;;;;3.07;2.87;;;27.60;66.40;;;;;;4849581;29;20470;-85
2023/08/12 11:33:38;;;;;;;2.83;2.70;;;27.60;66.40;;;;;;4849505;29;20500;-83
2023/08/12 11:36:07;;;;;;;4.17;3.20;;;27.60;66.40;;;;;;4851918;29;20482;-84
2023/08/12 11:38:35;;;;;;;3.17;2.87;;;27.60;66.40;;;;;;4854118;29;20565;-83
2023/08/12 11:41:03;;;;;;;2.63;2.43;;;27.60;66.40;;;;;;4854643;29;20520;-85
2023/08/12 11:43:33;;;;;;;3.13;2.90;;;27.60;66.40;;;;;;4853647;29;20467;-84
2023/08/12 11:46:01;;;;;;;2.80;2.60;;;27.60;66.50;;;;;;4851980;29;20980;-85
2023/08/12 11:48:30;;;;;;;4.00;2.97;;;27.60;66.60;;;;;;4852052;29;20598;-84
2023/08/12 11:51:00;;;;;;;4.00;3.03;;;27.70;66.60;;;;;;4852976;29;20487;-84
2023/08/12 11:53:28;;;;;;;3.77;3.47;;;27.80;66.30;;;;;;4851120;29;20486;-84
2023/08/12 11:55:56;;;;;;;3.50;3.00;;;28.00;65.80;;;;;;4849317;29;20475;-84
2023/08/12 11:58:25;;;;;;;2.63;2.43;;;28.20;65.40;;;;;;4850150;29;20469;-85
2023/08/12 12:01:00;;;;;;;3.10;2.90;;;28.40;64.90;;;;;;4849992;29;20481;-84
2023/08/12 12:03:29;;;;;;;4.30;3.57;;;28.60;64.50;;;;;;4852195;29;20471;-84
2023/08/12 12:05:59;;;;;;;3.60;3.30;;;28.70;64.10;;;;;;4851397;29;20460;-84
2023/08/12 12:08:27;;;;;;;2.67;2.47;;;28.70;63.90;;;;;;4850578;29;20491;-85
2023/08/12 12:10:56;;;;;;;2.97;2.77;;;28.70;64.10;;;;;;4850498;29;21095;-84
2023/08/12 12:13:25;;;;;;;3.00;2.70;;;28.90;63.90;;;;;;4847635;29;20999;-85
2023/08/12 12:15:54;;;;;;;4.87;3.20;;;28.90;63.80;;;;;;4847232;29;20464;-84
2023/08/12 12:18:22;;;;;;;3.30;2.70;;;29.10;63.50;;;;;;4850843;29;20912;-84
2023/08/12 12:20:57;;;;;;;3.10;2.90;;;29.20;63.20;;;;;;4852174;29;20476;-86
2023/08/12 12:23:30;;;;;;;2.73;2.53;;;29.20;63.10;;;;;;4852694;29;20466;-86
2023/08/12 12:26:00;;;;;;;2.90;2.70;;;29.30;62.80;;;;;;4851527;29;20470;-86
2023/08/12 12:28:29;;;;;;;2.10;2.00;;;29.30;62.60;;;;;;4848304;29;20478;-84
2023/08/12 12:30:57;;;;;;;3.20;3.00;;;29.30;62.80;;;;;;4856318;29;20465;-83
2023/08/12 12:33:25;;;;;;;3.00;2.80;;;29.10;62.90;;;;;;4849233;29;20484;-84
2023/08/12 12:35:54;;;;;;;3.10;2.90;;;28.90;63.40;;;;;;4852957;29;21141;-85
2023/08/12 12:38:28;;;;;;;2.73;2.63;;;28.70;63.90;;;;;;4845647;29;20566;-84
2023/08/12 12:40:57;;;;;;;2.90;2.70;;;28.60;64.30;;;;;;4849100;29;20475;-83
2023/08/12 12:43:25;;;;;;;3.23;2.93;;;28.60;64.30;;;;;;4849343;29;20534;-84
2023/08/12 12:45:54;;;;;;;2.77;2.63;;;28.60;64.30;;;;;;4847007;29;20568;-84
2023/08/12 12:48:22;;;;;;;2.40;2.30;;;28.60;64.30;;;;;;4847543;29;20989;-84
2023/08/12 12:50:50;;;;;;;2.60;2.50;;;28.70;64.20;;;;;;4845726;29;20479;-85
2023/08/12 12:53:18;;;;;;;3.00;2.70;;;28.70;64.20;;;;;;4852416;29;20984;-84
2023/08/12 12:55:48;;;;;;;3.10;2.90;;;28.60;64.10;;;;;;4844007;29;20525;-85
2023/08/12 12:58:17;;;;;;;2.83;2.63;;;28.50;64.30;;;;;;4843670;29;20530;-84
2023/08/12 13:00:45;;;;;;;3.03;2.83;;;28.40;64.60;;;;;;4852331;29;20892;-84
2023/08/12 13:03:13;;;;;;;2.43;2.23;;;28.30;64.80;;;;;;4847832;29;20484;-84